createdAt,value
2017-06-04T00:00:11.069Z,1017.59
2017-06-04T00:01:16.711Z,1017.60
2017-06-04T00:02:22.528Z,1017.53
2017-06-04T00:03:25.274Z,1017.53
2017-06-04T00:04:27.968Z,1017.48
2017-06-04T00:05:30.683Z,1017.54
2017-06-04T00:06:33.249Z,1017.48
2017-06-04T00:07:35.879Z,1017.53
2017-06-04T00:08:38.484Z,1017.49
2017-06-04T00:09:41.070Z,1017.50
2017-06-04T00:10:43.572Z,1017.48
2017-06-04T00:11:46.162Z,1017.55
2017-06-04T00:12:48.703Z,1017.47
2017-06-04T00:13:51.613Z,1017.55
2017-06-04T00:14:54.264Z,1017.51
2017-06-04T00:15:57.147Z,1017.55
2017-06-04T00:16:59.932Z,1017.53
2017-06-04T00:18:02.500Z,1017.51
2017-06-04T00:19:05.197Z,1017.51
2017-06-04T00:20:07.760Z,1017.49
2017-06-04T00:21:10.364Z,1017.54
2017-06-04T00:22:15.247Z,1017.53
2017-06-04T00:23:18.024Z,1017.54
2017-06-04T00:24:22.316Z,1017.54
2017-06-04T00:25:25.038Z,1017.49
2017-06-04T00:26:27.653Z,1017.51
2017-06-04T00:27:30.388Z,1017.50
2017-06-04T00:28:32.991Z,1017.50
2017-06-04T00:29:35.601Z,1017.48
2017-06-04T00:30:38.205Z,1017.52
2017-06-04T00:31:40.932Z,1017.51
2017-06-04T00:32:43.590Z,1017.48
2017-06-04T00:33:46.256Z,1017.54
2017-06-04T00:34:48.886Z,1017.51
2017-06-04T00:35:51.588Z,1017.53
2017-06-04T00:36:54.202Z,1017.58
2017-06-04T00:37:56.761Z,1017.58
2017-06-04T00:38:59.452Z,1017.54
2017-06-04T00:40:02.148Z,1017.56
2017-06-04T00:41:04.843Z,1017.55
2017-06-04T00:42:07.560Z,1017.50
2017-06-04T00:43:10.181Z,1017.52
2017-06-04T00:44:12.772Z,1017.56
2017-06-04T00:45:15.403Z,1017.53
2017-06-04T00:46:18.110Z,1017.53
2017-06-04T00:47:20.654Z,1017.53
2017-06-04T00:48:23.245Z,1017.49
2017-06-04T00:49:25.865Z,1017.44
2017-06-04T00:50:28.477Z,1017.48
2017-06-04T00:51:31.179Z,1017.52
2017-06-04T00:52:33.903Z,1017.53
2017-06-04T00:53:36.695Z,1017.52
2017-06-04T00:54:39.406Z,1017.52
2017-06-04T00:55:41.973Z,1017.50
2017-06-04T00:56:44.528Z,1017.51
2017-06-04T00:57:47.148Z,1017.54
2017-06-04T00:58:49.757Z,1017.51
2017-06-04T00:59:52.309Z,1017.55
2017-06-04T01:00:57.451Z,1017.56
2017-06-04T01:02:05.087Z,1017.56
2017-06-04T01:03:07.671Z,1017.56
2017-06-04T01:04:10.309Z,1017.55
2017-06-04T01:05:12.856Z,1017.55
2017-06-04T01:06:15.617Z,1017.62
2017-06-04T01:07:18.196Z,1017.55
2017-06-04T01:08:20.821Z,1017.62
2017-06-04T01:09:23.680Z,1017.60
2017-06-04T01:10:26.377Z,1017.61
2017-06-04T01:11:29.076Z,1017.63
2017-06-04T01:12:31.760Z,1017.61
2017-06-04T01:13:34.391Z,1017.61
2017-06-04T01:14:37.004Z,1017.61
2017-06-04T01:15:39.628Z,1017.62
2017-06-04T01:16:42.333Z,1017.65
2017-06-04T01:17:45.040Z,1017.59
2017-06-04T01:18:47.734Z,1017.60
2017-06-04T01:19:50.773Z,1017.55
2017-06-04T01:20:53.452Z,1017.55
2017-06-04T01:21:56.222Z,1017.57
2017-06-04T01:22:58.931Z,1017.59
2017-06-04T01:24:03.819Z,1017.60
2017-06-04T01:25:06.369Z,1017.57
2017-06-04T01:26:08.985Z,1017.57
2017-06-04T01:27:13.675Z,1017.59
2017-06-04T01:28:16.262Z,1017.60
2017-06-04T01:29:18.754Z,1017.62
2017-06-04T01:30:23.484Z,1017.62
2017-06-04T01:31:28.605Z,1017.64
2017-06-04T01:32:31.283Z,1017.66
2017-06-04T01:33:33.896Z,1017.66
2017-06-04T01:34:36.461Z,1017.63
2017-06-04T01:35:39.275Z,1017.62
2017-06-04T01:36:41.942Z,1017.61
2017-06-04T01:37:44.523Z,1017.64
2017-06-04T01:38:47.233Z,1017.67
2017-06-04T01:39:50.045Z,1017.60
2017-06-04T01:40:53.487Z,1017.63
2017-06-04T01:41:56.083Z,1017.63
2017-06-04T01:42:58.776Z,1017.65
2017-06-04T01:44:01.489Z,1017.62
2017-06-04T01:45:04.198Z,1017.62
2017-06-04T01:46:06.798Z,1017.63
2017-06-04T01:47:09.502Z,1017.65
2017-06-04T01:48:12.065Z,1017.60
2017-06-04T01:49:14.599Z,1017.61
2017-06-04T01:50:17.323Z,1017.61
2017-06-04T01:51:19.906Z,1017.60
2017-06-04T01:52:22.563Z,1017.63
2017-06-04T01:53:25.385Z,1017.65
2017-06-04T01:54:27.928Z,1017.60
2017-06-04T01:55:30.526Z,1017.62
2017-06-04T01:56:33.059Z,1017.66
2017-06-04T01:57:35.600Z,1017.62
2017-06-04T01:58:38.241Z,1017.69
2017-06-04T01:59:40.828Z,1017.65
2017-06-04T02:00:45.428Z,1017.66
2017-06-04T02:01:54.846Z,1017.67
2017-06-04T02:02:57.501Z,1017.67
2017-06-04T02:04:04.316Z,1017.69
2017-06-04T02:05:07.023Z,1017.66
2017-06-04T02:06:10.341Z,1017.70
2017-06-04T02:07:13.011Z,1017.69
2017-06-04T02:08:15.560Z,1017.65
2017-06-04T02:09:18.227Z,1017.66
2017-06-04T02:10:20.821Z,1017.64
2017-06-04T02:11:23.529Z,1017.66
2017-06-04T02:12:26.195Z,1017.63
2017-06-04T02:13:28.893Z,1017.62
2017-06-04T02:14:31.573Z,1017.62
2017-06-04T02:15:34.159Z,1017.55
2017-06-04T02:16:36.868Z,1017.62
2017-06-04T02:17:39.453Z,1017.59
2017-06-04T02:18:42.073Z,1017.59
2017-06-04T02:19:44.671Z,1017.59
2017-06-04T02:20:47.262Z,1017.62
2017-06-04T02:21:49.869Z,1017.62
2017-06-04T02:22:52.572Z,1017.64
2017-06-04T02:23:55.220Z,1017.62
2017-06-04T02:24:57.752Z,1017.58
2017-06-04T02:26:00.488Z,1017.56
2017-06-04T02:27:03.001Z,1017.58
2017-06-04T02:28:05.545Z,1017.55
2017-06-04T02:29:08.077Z,1017.58
2017-06-04T02:30:10.682Z,1017.58
2017-06-04T02:31:13.212Z,1017.57
2017-06-04T02:32:15.762Z,1017.57
2017-06-04T02:33:18.333Z,1017.57
2017-06-04T02:34:20.921Z,1017.56
2017-06-04T02:35:23.607Z,1017.57
2017-06-04T02:36:26.264Z,1017.60
2017-06-04T02:37:28.739Z,1017.59
2017-06-04T02:38:31.272Z,1017.57
2017-06-04T02:39:33.766Z,1017.62
2017-06-04T02:40:36.485Z,1017.57
2017-06-04T02:41:39.232Z,1017.60
2017-06-04T02:42:41.915Z,1017.59
2017-06-04T02:43:44.578Z,1017.59
2017-06-04T02:44:47.237Z,1017.58
2017-06-04T02:45:49.922Z,1017.58
2017-06-04T02:46:52.592Z,1017.58
2017-06-04T02:47:55.279Z,1017.58
2017-06-04T02:48:57.968Z,1017.55
2017-06-04T02:50:00.540Z,1017.56
2017-06-04T02:51:03.742Z,1017.59
2017-06-04T02:52:06.667Z,1017.63
2017-06-04T02:53:09.254Z,1017.61
2017-06-04T02:54:11.940Z,1017.56
2017-06-04T02:55:14.623Z,1017.63
2017-06-04T02:56:17.240Z,1017.60
2017-06-04T02:57:19.850Z,1017.60
2017-06-04T02:58:22.448Z,1017.67
2017-06-04T02:59:25.150Z,1017.66
2017-06-04T03:00:31.460Z,1017.66
2017-06-04T03:01:38.106Z,1017.69
2017-06-04T03:02:40.494Z,1017.68
2017-06-04T03:03:43.090Z,1017.67
2017-06-04T03:04:45.751Z,1017.69
2017-06-04T03:05:48.255Z,1017.69
2017-06-04T03:06:50.773Z,1017.66
2017-06-04T03:07:53.264Z,1017.65
2017-06-04T03:08:55.757Z,1017.68
2017-06-04T03:09:58.554Z,1017.64
2017-06-04T03:11:01.016Z,1017.71
2017-06-04T03:12:03.752Z,1017.65
2017-06-04T03:13:06.215Z,1017.66
2017-06-04T03:14:08.909Z,1017.65
2017-06-04T03:15:11.594Z,1017.69
2017-06-04T03:16:14.261Z,1017.66
2017-06-04T03:17:16.981Z,1017.62
2017-06-04T03:18:19.553Z,1017.66
2017-06-04T03:19:22.138Z,1017.65
2017-06-04T03:20:24.750Z,1017.62
2017-06-04T03:21:27.434Z,1017.63
2017-06-04T03:22:30.118Z,1017.62
2017-06-04T03:23:34.342Z,1017.62
2017-06-04T03:24:38.843Z,1017.62
2017-06-04T03:25:46.518Z,1017.61
2017-06-04T03:26:49.035Z,1017.64
2017-06-04T03:27:53.867Z,1017.62
2017-06-04T03:28:56.482Z,1017.65
2017-06-04T03:29:59.037Z,1017.63
2017-06-04T03:31:01.713Z,1017.64
2017-06-04T03:32:04.303Z,1017.65
2017-06-04T03:33:07.002Z,1017.64
2017-06-04T03:34:13.711Z,1017.67
2017-06-04T03:35:19.768Z,1017.66
2017-06-04T03:36:22.293Z,1017.68
2017-06-04T03:37:24.778Z,1017.68
2017-06-04T03:38:27.486Z,1017.67
2017-06-04T03:39:30.113Z,1017.64
2017-06-04T03:40:32.673Z,1017.71
2017-06-04T03:41:36.092Z,1017.69
2017-06-04T03:42:38.622Z,1017.69
2017-06-04T03:43:41.318Z,1017.71
2017-06-04T03:44:43.979Z,1017.71
2017-06-04T03:45:46.659Z,1017.70
2017-06-04T03:46:51.612Z,1017.68
2017-06-04T03:47:54.179Z,1017.72
2017-06-04T03:48:56.747Z,1017.74
2017-06-04T03:49:59.326Z,1017.73
2017-06-04T03:51:02.530Z,1017.72
2017-06-04T03:52:05.078Z,1017.72
2017-06-04T03:53:07.661Z,1017.68
2017-06-04T03:54:10.310Z,1017.70
2017-06-04T03:55:15.688Z,1017.74
2017-06-04T03:56:18.219Z,1017.72
2017-06-04T03:57:20.812Z,1017.69
2017-06-04T03:58:25.406Z,1017.71
2017-06-04T03:59:28.015Z,1017.69
2017-06-04T04:00:32.992Z,1017.72
2017-06-04T04:01:39.654Z,1017.70
2017-06-04T04:02:41.859Z,1017.69
2017-06-04T04:03:44.439Z,1017.67
2017-06-04T04:04:47.138Z,1017.68
2017-06-04T04:05:49.801Z,1017.64
2017-06-04T04:06:52.491Z,1017.70
2017-06-04T04:07:57.163Z,1017.68
2017-06-04T04:08:59.704Z,1017.64
2017-06-04T04:10:02.369Z,1017.65
2017-06-04T04:11:05.062Z,1017.68
2017-06-04T04:12:07.628Z,1017.68
2017-06-04T04:13:10.330Z,1017.68
2017-06-04T04:14:12.897Z,1017.66
2017-06-04T04:15:16.298Z,1017.69
2017-06-04T04:16:18.901Z,1017.70
2017-06-04T04:17:21.998Z,1017.70
2017-06-04T04:18:24.491Z,1017.74
2017-06-04T04:19:27.037Z,1017.69
2017-06-04T04:20:29.557Z,1017.73
2017-06-04T04:21:32.200Z,1017.70
2017-06-04T04:22:34.846Z,1017.68
2017-06-04T04:23:38.555Z,1017.69
2017-06-04T04:24:41.009Z,1017.68
2017-06-04T04:25:43.702Z,1017.66
2017-06-04T04:26:46.345Z,1017.69
2017-06-04T04:27:48.917Z,1017.67
2017-06-04T04:28:51.588Z,1017.68
2017-06-04T04:29:54.161Z,1017.69
2017-06-04T04:30:58.510Z,1017.76
2017-06-04T04:32:01.071Z,1017.76
2017-06-04T04:33:04.560Z,1017.73
2017-06-04T04:34:07.165Z,1017.74
2017-06-04T04:35:09.851Z,1017.74
2017-06-04T04:36:12.517Z,1017.74
2017-06-04T04:37:15.194Z,1017.76
2017-06-04T04:38:17.859Z,1017.75
2017-06-04T04:39:20.426Z,1017.73
2017-06-04T04:40:23.019Z,1017.73
2017-06-04T04:41:25.608Z,1017.72
2017-06-04T04:42:28.186Z,1017.75
2017-06-04T04:43:30.729Z,1017.72
2017-06-04T04:44:33.490Z,1017.77
2017-06-04T04:45:37.705Z,1017.77
2017-06-04T04:46:40.159Z,1017.74
2017-06-04T04:47:43.652Z,1017.74
2017-06-04T04:48:46.360Z,1017.77
2017-06-04T04:49:50.568Z,1017.79
2017-06-04T04:50:53.131Z,1017.76
2017-06-04T04:51:55.644Z,1017.75
2017-06-04T04:52:58.230Z,1017.81
2017-06-04T04:54:00.829Z,1017.78
2017-06-04T04:55:03.330Z,1017.77
2017-06-04T04:56:05.867Z,1017.81
2017-06-04T04:57:09.411Z,1017.78
2017-06-04T04:58:11.882Z,1017.80
2017-06-04T04:59:14.577Z,1017.83
2017-06-04T05:00:19.834Z,1017.80
2017-06-04T05:01:28.551Z,1017.82
2017-06-04T05:02:31.889Z,1017.83
2017-06-04T05:03:34.581Z,1017.83
2017-06-04T05:04:37.250Z,1017.85
2017-06-04T05:05:39.919Z,1017.85
2017-06-04T05:06:42.632Z,1017.83
2017-06-04T05:07:45.164Z,1017.89
2017-06-04T05:08:47.679Z,1017.88
2017-06-04T05:09:50.279Z,1017.89
2017-06-04T05:10:52.858Z,1017.88
2017-06-04T05:11:55.347Z,1017.89
2017-06-04T05:12:57.829Z,1017.87
2017-06-04T05:14:00.320Z,1017.91
2017-06-04T05:15:02.848Z,1017.88
2017-06-04T05:16:05.431Z,1017.92
2017-06-04T05:17:08.117Z,1017.90
2017-06-04T05:18:10.783Z,1017.92
2017-06-04T05:19:14.975Z,1017.92
2017-06-04T05:20:17.597Z,1017.93
2017-06-04T05:21:20.215Z,1017.92
2017-06-04T05:22:22.892Z,1017.89
2017-06-04T05:23:25.447Z,1017.91
2017-06-04T05:24:28.163Z,1017.94
2017-06-04T05:25:30.827Z,1017.89
2017-06-04T05:26:33.500Z,1017.89
2017-06-04T05:27:36.172Z,1017.89
2017-06-04T05:28:38.849Z,1017.92
2017-06-04T05:29:41.430Z,1017.90
2017-06-04T05:30:44.001Z,1017.91
2017-06-04T05:31:46.578Z,1017.89
2017-06-04T05:32:49.250Z,1017.92
2017-06-04T05:33:51.913Z,1017.91
2017-06-04T05:34:54.582Z,1017.92
2017-06-04T05:35:57.255Z,1017.91
2017-06-04T05:36:59.774Z,1017.96
2017-06-04T05:38:02.258Z,1017.93
2017-06-04T05:39:04.851Z,1017.94
2017-06-04T05:40:07.505Z,1017.94
2017-06-04T05:41:10.016Z,1017.94
2017-06-04T05:42:12.509Z,1017.97
2017-06-04T05:43:15.106Z,1017.95
2017-06-04T05:44:17.765Z,1017.93
2017-06-04T05:45:20.408Z,1017.95
2017-06-04T05:46:22.946Z,1017.94
2017-06-04T05:47:25.525Z,1017.92
2017-06-04T05:48:28.171Z,1017.92
2017-06-04T05:49:30.754Z,1017.92
2017-06-04T05:50:33.293Z,1017.92
2017-06-04T05:51:35.827Z,1017.94
2017-06-04T05:52:38.427Z,1017.95
2017-06-04T05:53:41.011Z,1017.94
2017-06-04T05:54:43.547Z,1017.94
2017-06-04T05:55:46.122Z,1017.92
2017-06-04T05:56:48.764Z,1017.94
2017-06-04T05:57:51.333Z,1017.95
2017-06-04T05:58:53.921Z,1017.90
2017-06-04T05:59:56.492Z,1017.94
2017-06-04T06:01:00.371Z,1017.89
2017-06-04T06:02:07.947Z,1017.95
2017-06-04T06:03:10.424Z,1017.94
2017-06-04T06:04:13.151Z,1017.96
2017-06-04T06:05:15.822Z,1017.99
2017-06-04T06:06:18.339Z,1018.00
2017-06-04T06:07:20.839Z,1017.97
2017-06-04T06:08:23.430Z,1017.97
2017-06-04T06:09:25.961Z,1017.94
2017-06-04T06:10:28.544Z,1017.95
2017-06-04T06:11:31.147Z,1017.96
2017-06-04T06:12:33.722Z,1017.97
2017-06-04T06:13:36.256Z,1018.00
2017-06-04T06:14:38.952Z,1017.97
2017-06-04T06:15:41.623Z,1017.97
2017-06-04T06:16:44.397Z,1017.94
2017-06-04T06:17:47.810Z,1017.98
2017-06-04T06:18:51.457Z,1017.99
2017-06-04T06:19:54.022Z,1017.99
2017-06-04T06:20:56.504Z,1018.00
2017-06-04T06:21:59.092Z,1017.93
2017-06-04T06:23:01.675Z,1017.96
2017-06-04T06:24:04.350Z,1017.96
2017-06-04T06:25:06.917Z,1017.95
2017-06-04T06:26:09.496Z,1017.94
2017-06-04T06:27:12.266Z,1017.93
2017-06-04T06:28:14.960Z,1017.91
2017-06-04T06:29:17.689Z,1017.94
2017-06-04T06:30:20.384Z,1017.93
2017-06-04T06:31:22.918Z,1018.00
2017-06-04T06:32:25.454Z,1017.95
2017-06-04T06:33:28.055Z,1017.96
2017-06-04T06:34:30.721Z,1017.99
2017-06-04T06:35:33.291Z,1017.96
2017-06-04T06:36:35.868Z,1017.94
2017-06-04T06:37:38.474Z,1017.95
2017-06-04T06:38:40.998Z,1017.97
2017-06-04T06:39:43.654Z,1017.98
2017-06-04T06:40:46.184Z,1017.99
2017-06-04T06:41:48.798Z,1017.97
2017-06-04T06:42:51.339Z,1017.93
2017-06-04T06:43:53.823Z,1017.97
2017-06-04T06:44:56.417Z,1017.95
2017-06-04T06:45:58.964Z,1017.95
2017-06-04T06:47:01.446Z,1017.97
2017-06-04T06:48:04.043Z,1017.98
2017-06-04T06:49:06.522Z,1017.96
2017-06-04T06:50:09.217Z,1017.97
2017-06-04T06:51:11.783Z,1017.93
2017-06-04T06:52:14.490Z,1017.95
2017-06-04T06:53:17.180Z,1017.93
2017-06-04T06:54:19.867Z,1017.95
2017-06-04T06:55:22.559Z,1017.94
2017-06-04T06:56:25.242Z,1017.92
2017-06-04T06:57:27.922Z,1017.88
2017-06-04T06:58:30.592Z,1017.92
2017-06-04T06:59:33.267Z,1017.93
2017-06-04T07:00:41.360Z,1017.91
2017-06-04T07:01:48.549Z,1017.92
2017-06-04T07:02:51.569Z,1017.89
2017-06-04T07:03:54.196Z,1017.93
2017-06-04T07:04:56.880Z,1017.92
2017-06-04T07:05:59.394Z,1017.92
2017-06-04T07:07:01.979Z,1017.89
2017-06-04T07:08:04.557Z,1017.89
2017-06-04T07:09:07.240Z,1017.90
2017-06-04T07:10:09.883Z,1017.93
2017-06-04T07:11:12.461Z,1017.94
2017-06-04T07:12:15.047Z,1017.88
2017-06-04T07:13:17.723Z,1017.87
2017-06-04T07:14:20.421Z,1017.88
2017-06-04T07:15:23.097Z,1017.93
2017-06-04T07:16:25.681Z,1017.91
2017-06-04T07:17:28.370Z,1017.88
2017-06-04T07:18:31.081Z,1017.89
2017-06-04T07:19:33.546Z,1017.89
2017-06-04T07:20:36.125Z,1017.88
2017-06-04T07:21:38.650Z,1017.90
2017-06-04T07:22:41.151Z,1017.88
2017-06-04T07:23:43.680Z,1017.90
2017-06-04T07:24:46.338Z,1017.88
2017-06-04T07:25:48.869Z,1017.90
2017-06-04T07:26:51.395Z,1017.85
2017-06-04T07:27:53.974Z,1017.88
2017-06-04T07:28:56.505Z,1017.89
2017-06-04T07:29:59.105Z,1017.87
2017-06-04T07:31:01.712Z,1017.87
2017-06-04T07:32:04.430Z,1017.90
2017-06-04T07:33:07.007Z,1017.86
2017-06-04T07:34:09.584Z,1017.91
2017-06-04T07:35:12.180Z,1017.91
2017-06-04T07:36:14.766Z,1017.92
2017-06-04T07:37:17.369Z,1017.93
2017-06-04T07:38:19.956Z,1017.97
2017-06-04T07:39:22.711Z,1017.97
2017-06-04T07:40:25.318Z,1017.96
2017-06-04T07:41:27.961Z,1017.97
2017-06-04T07:42:30.681Z,1017.98
2017-06-04T07:43:33.471Z,1017.98
2017-06-04T07:44:36.203Z,1017.94
2017-06-04T07:45:38.884Z,1017.96
2017-06-04T07:46:41.528Z,1018.00
2017-06-04T07:47:44.014Z,1017.99
2017-06-04T07:48:46.734Z,1017.94
2017-06-04T07:49:49.309Z,1017.98
2017-06-04T07:50:52.018Z,1017.99
2017-06-04T07:51:54.824Z,1017.97
2017-06-04T07:52:57.556Z,1017.97
2017-06-04T07:54:00.250Z,1017.97
2017-06-04T07:55:02.845Z,1017.98
2017-06-04T07:56:05.457Z,1017.98
2017-06-04T07:57:08.059Z,1017.96
2017-06-04T07:58:10.665Z,1017.98
2017-06-04T07:59:13.148Z,1017.97
2017-06-04T08:00:18.535Z,1017.99
2017-06-04T08:01:25.041Z,1017.99
2017-06-04T08:02:29.531Z,1018.01
2017-06-04T08:03:32.242Z,1017.99
2017-06-04T08:04:34.717Z,1018.03
2017-06-04T08:05:37.321Z,1017.98
2017-06-04T08:06:39.900Z,1017.98
2017-06-04T08:07:42.449Z,1017.96
2017-06-04T08:08:45.075Z,1018.00
2017-06-04T08:09:47.607Z,1018.01
2017-06-04T08:10:50.138Z,1017.99
2017-06-04T08:11:52.914Z,1017.99
2017-06-04T08:12:55.601Z,1018.02
2017-06-04T08:13:58.286Z,1017.99
2017-06-04T08:15:00.966Z,1018.01
2017-06-04T08:16:03.545Z,1018.01
2017-06-04T08:17:06.127Z,1018.01
2017-06-04T08:18:08.801Z,1018.00
2017-06-04T08:19:12.308Z,1018.01
2017-06-04T08:20:14.987Z,1018.02
2017-06-04T08:21:17.509Z,1018.00
2017-06-04T08:22:20.096Z,1018.05
2017-06-04T08:23:23.358Z,1017.97
2017-06-04T08:24:25.908Z,1018.00
2017-06-04T08:25:28.577Z,1018.03
2017-06-04T08:26:31.217Z,1018.03
2017-06-04T08:27:33.703Z,1018.06
2017-06-04T08:28:36.383Z,1018.04
2017-06-04T08:29:38.912Z,1018.03
2017-06-04T08:30:41.496Z,1018.09
2017-06-04T08:31:44.018Z,1018.07
2017-06-04T08:32:46.707Z,1018.06
2017-06-04T08:33:49.383Z,1018.02
2017-06-04T08:34:52.060Z,1018.01
2017-06-04T08:35:54.735Z,1018.03
2017-06-04T08:36:57.417Z,1018.00
2017-06-04T08:38:00.092Z,1018.01
2017-06-04T08:39:02.762Z,1017.99
2017-06-04T08:40:05.462Z,1017.99
2017-06-04T08:41:08.138Z,1018.01
2017-06-04T08:42:10.718Z,1018.01
2017-06-04T08:43:13.316Z,1018.01
2017-06-04T08:44:15.893Z,1018.00
2017-06-04T08:45:18.473Z,1018.00
2017-06-04T08:46:21.154Z,1018.03
2017-06-04T08:47:23.832Z,1018.02
2017-06-04T08:48:26.411Z,1018.01
2017-06-04T08:49:28.949Z,1017.97
2017-06-04T08:50:31.501Z,1017.98
2017-06-04T08:51:34.060Z,1017.98
2017-06-04T08:52:36.796Z,1018.00
2017-06-04T08:53:39.402Z,1018.02
2017-06-04T08:54:41.884Z,1017.99
2017-06-04T08:55:44.402Z,1018.02
2017-06-04T08:56:46.896Z,1018.04
2017-06-04T08:57:49.446Z,1018.04
2017-06-04T08:58:52.120Z,1018.04
2017-06-04T08:59:54.706Z,1018.05
2017-06-04T09:00:57.875Z,1018.01
2017-06-04T09:02:04.239Z,1018.04
2017-06-04T09:03:06.770Z,1018.02
2017-06-04T09:04:09.508Z,1018.04
2017-06-04T09:05:12.211Z,1018.05
2017-06-04T09:06:14.745Z,1018.07
2017-06-04T09:07:17.425Z,1018.07
2017-06-04T09:08:19.994Z,1018.02
2017-06-04T09:09:22.725Z,1018.04
2017-06-04T09:10:25.364Z,1018.05
2017-06-04T09:11:27.970Z,1018.04
2017-06-04T09:12:30.553Z,1018.03
2017-06-04T09:13:33.247Z,1018.02
2017-06-04T09:14:35.919Z,1018.02
2017-06-04T09:15:38.595Z,1018.03
2017-06-04T09:16:41.894Z,1018.02
2017-06-04T09:17:44.573Z,1018.00
2017-06-04T09:18:47.103Z,1018.01
2017-06-04T09:19:49.772Z,1018.05
2017-06-04T09:20:52.337Z,1018.05
2017-06-04T09:21:54.926Z,1018.03
2017-06-04T09:22:57.509Z,1018.02
2017-06-04T09:24:00.037Z,1018.03
2017-06-04T09:25:02.632Z,1018.04
2017-06-04T09:26:05.228Z,1017.98
2017-06-04T09:27:07.811Z,1018.00
2017-06-04T09:28:10.520Z,1018.01
2017-06-04T09:29:13.113Z,1018.03
2017-06-04T09:30:15.693Z,1017.98
2017-06-04T09:31:18.530Z,1017.96
2017-06-04T09:32:21.194Z,1017.99
2017-06-04T09:33:23.967Z,1018.00
2017-06-04T09:34:26.652Z,1017.98
2017-06-04T09:35:29.229Z,1018.01
2017-06-04T09:36:31.840Z,1018.02
2017-06-04T09:37:34.509Z,1017.97
2017-06-04T09:38:37.104Z,1017.97
2017-06-04T09:39:39.700Z,1017.99
2017-06-04T09:40:43.112Z,1017.97
2017-06-04T09:41:45.700Z,1017.96
2017-06-04T09:42:48.293Z,1017.98
2017-06-04T09:43:50.914Z,1017.96
2017-06-04T09:44:53.451Z,1017.98
2017-06-04T09:45:56.042Z,1018.00
2017-06-04T09:46:58.528Z,1018.04
2017-06-04T09:48:01.073Z,1018.00
2017-06-04T09:49:03.638Z,1018.01
2017-06-04T09:50:06.175Z,1018.02
2017-06-04T09:51:08.765Z,1017.99
2017-06-04T09:52:11.444Z,1018.04
2017-06-04T09:53:14.123Z,1018.04
2017-06-04T09:54:16.882Z,1018.04
2017-06-04T09:55:19.540Z,1018.04
2017-06-04T09:56:22.210Z,1018.05
2017-06-04T09:57:24.809Z,1018.06
2017-06-04T09:58:27.388Z,1018.05
2017-06-04T09:59:29.993Z,1018.08
2017-06-04T10:00:35.307Z,1018.04
2017-06-04T10:01:41.351Z,1018.06
2017-06-04T10:02:43.933Z,1018.08
2017-06-04T10:03:46.622Z,1018.05
2017-06-04T10:04:49.202Z,1018.10
2017-06-04T10:05:51.788Z,1018.07
2017-06-04T10:06:54.421Z,1018.10
2017-06-04T10:07:56.994Z,1018.06
2017-06-04T10:08:59.763Z,1018.03
2017-06-04T10:10:02.243Z,1018.04
2017-06-04T10:11:04.902Z,1018.06
2017-06-04T10:12:07.545Z,1018.06
2017-06-04T10:13:10.133Z,1018.09
2017-06-04T10:14:12.797Z,1018.07
2017-06-04T10:15:15.329Z,1018.07
2017-06-04T10:16:17.928Z,1018.08
2017-06-04T10:17:20.595Z,1018.09
2017-06-04T10:18:23.128Z,1018.07
2017-06-04T10:19:25.681Z,1018.12
2017-06-04T10:20:28.296Z,1018.11
2017-06-04T10:21:30.809Z,1018.10
2017-06-04T10:22:33.363Z,1018.17
2017-06-04T10:23:35.909Z,1018.15
2017-06-04T10:24:38.405Z,1018.13
2017-06-04T10:25:41.072Z,1018.16
2017-06-04T10:26:43.675Z,1018.16
2017-06-04T10:27:46.368Z,1018.14
2017-06-04T10:28:49.024Z,1018.12
2017-06-04T10:29:51.710Z,1018.14
2017-06-04T10:30:54.394Z,1018.12
2017-06-04T10:31:57.123Z,1018.09
2017-06-04T10:32:59.804Z,1018.12
2017-06-04T10:34:02.395Z,1018.12
2017-06-04T10:35:05.132Z,1018.10
2017-06-04T10:36:07.836Z,1018.11
2017-06-04T10:37:10.553Z,1018.15
2017-06-04T10:38:13.104Z,1018.09
2017-06-04T10:39:15.652Z,1018.14
2017-06-04T10:40:18.275Z,1018.14
2017-06-04T10:41:20.962Z,1018.12
2017-06-04T10:42:23.638Z,1018.13
2017-06-04T10:43:26.345Z,1018.17
2017-06-04T10:44:29.021Z,1018.10
2017-06-04T10:45:31.723Z,1018.11
2017-06-04T10:46:34.424Z,1018.09
2017-06-04T10:47:37.001Z,1018.03
2017-06-04T10:48:39.606Z,1018.02
2017-06-04T10:49:42.191Z,1018.02
2017-06-04T10:50:44.891Z,1018.03
2017-06-04T10:51:47.367Z,1018.01
2017-06-04T10:52:49.924Z,1018.07
2017-06-04T10:53:52.451Z,1018.07
2017-06-04T10:54:55.161Z,1018.11
2017-06-04T10:55:57.871Z,1018.10
2017-06-04T10:57:00.568Z,1018.09
2017-06-04T10:58:03.269Z,1018.13
2017-06-04T10:59:06.054Z,1018.13
2017-06-04T11:00:10.615Z,1018.13
2017-06-04T11:01:15.464Z,1018.07
2017-06-04T11:02:23.270Z,1018.08
2017-06-04T11:03:25.826Z,1018.07
2017-06-04T11:04:28.317Z,1018.09
2017-06-04T11:05:31.987Z,1018.08
2017-06-04T11:06:34.476Z,1018.07
2017-06-04T11:07:37.104Z,1018.09
2017-06-04T11:08:39.782Z,1018.08
2017-06-04T11:09:42.369Z,1018.06
2017-06-04T11:10:45.922Z,1018.12
2017-06-04T11:11:48.617Z,1018.07
2017-06-04T11:12:51.230Z,1018.14
2017-06-04T11:13:53.923Z,1018.18
2017-06-04T11:14:56.518Z,1018.12
2017-06-04T11:15:59.117Z,1018.14
2017-06-04T11:17:01.725Z,1018.12
2017-06-04T11:18:04.321Z,1018.11
2017-06-04T11:19:07.040Z,1018.12
2017-06-04T11:20:09.746Z,1018.08
2017-06-04T11:21:12.461Z,1018.03
2017-06-04T11:22:15.159Z,1017.98
2017-06-04T11:23:17.844Z,1018.00
2017-06-04T11:24:20.584Z,1017.98
2017-06-04T11:25:23.287Z,1017.98
2017-06-04T11:26:26.059Z,1018.00
2017-06-04T11:27:28.782Z,1018.04
2017-06-04T11:28:31.258Z,1018.01
2017-06-04T11:29:34.035Z,1018.03
2017-06-04T11:30:36.619Z,1018.05
2017-06-04T11:31:39.108Z,1017.97
2017-06-04T11:32:41.849Z,1017.98
2017-06-04T11:33:44.329Z,1017.96
2017-06-04T11:34:47.022Z,1017.94
2017-06-04T11:35:49.581Z,1017.92
2017-06-04T11:36:52.284Z,1017.99
2017-06-04T11:37:55.745Z,1017.93
2017-06-04T11:38:58.290Z,1017.87
2017-06-04T11:40:00.837Z,1017.95
2017-06-04T11:41:03.538Z,1017.94
2017-06-04T11:42:06.142Z,1017.96
2017-06-04T11:43:08.747Z,1017.92
2017-06-04T11:44:11.348Z,1017.92
2017-06-04T11:45:14.221Z,1017.92
2017-06-04T11:46:16.963Z,1017.92
2017-06-04T11:47:19.659Z,1017.95
2017-06-04T11:48:22.371Z,1017.91
2017-06-04T11:49:24.959Z,1017.92
2017-06-04T11:50:27.562Z,1017.93
2017-06-04T11:51:32.412Z,1017.91
2017-06-04T11:52:35.087Z,1017.89
2017-06-04T11:53:37.668Z,1017.92
2017-06-04T11:54:41.063Z,1017.97
2017-06-04T11:55:43.057Z,1017.98
2017-06-04T11:56:45.629Z,1017.91
2017-06-04T11:57:48.158Z,1017.93
2017-06-04T11:58:50.667Z,1017.92
2017-06-04T11:59:53.175Z,1017.96
2017-06-04T12:00:56.965Z,1017.93
2017-06-04T12:02:04.715Z,1017.96
2017-06-04T12:03:06.582Z,1017.99
2017-06-04T12:04:09.120Z,1018.00
2017-06-04T12:05:11.715Z,1018.01
2017-06-04T12:06:14.449Z,1017.96
2017-06-04T12:07:17.231Z,1017.92
2017-06-04T12:08:19.928Z,1017.94
2017-06-04T12:09:22.626Z,1017.99
2017-06-04T12:10:25.431Z,1018.02
2017-06-04T12:11:28.122Z,1017.95
2017-06-04T12:12:30.714Z,1018.07
2017-06-04T12:13:33.272Z,1018.03
2017-06-04T12:14:36.044Z,1018.05
2017-06-04T12:15:38.738Z,1018.01
2017-06-04T12:16:41.502Z,1018.03
2017-06-04T12:17:44.200Z,1018.10
2017-06-04T12:18:46.777Z,1018.00
2017-06-04T12:19:49.373Z,1018.04
2017-06-04T12:20:51.969Z,1018.12
2017-06-04T12:21:54.674Z,1018.04
2017-06-04T12:22:57.208Z,1018.09
2017-06-04T12:23:59.839Z,1018.11
2017-06-04T12:25:02.438Z,1018.08
2017-06-04T12:26:04.971Z,1018.12
2017-06-04T12:27:07.509Z,1018.14
2017-06-04T12:28:10.198Z,1018.08
2017-06-04T12:29:12.808Z,1018.07
2017-06-04T12:30:15.484Z,1018.11
2017-06-04T12:31:18.011Z,1018.08
2017-06-04T12:32:20.553Z,1018.13
2017-06-04T12:33:23.210Z,1018.09
2017-06-04T12:34:25.826Z,1018.13
2017-06-04T12:35:28.393Z,1018.17
2017-06-04T12:36:30.943Z,1018.16
2017-06-04T12:37:33.436Z,1018.16
2017-06-04T12:38:35.984Z,1018.19
2017-06-04T12:39:38.529Z,1018.17